Time;durP1;ratioP1;P1;durP2;ratioP2;P2;SDS_P1;SDS_P2;PMS_P1;PMS_P2;Temp;Humidity;BMP_temperature;BMP_pressure;BME280_temperature;BME280_humidity;BME280_pressure;Samples;Min_cycle;Max_cycle;Signal;HPM_P1;HPM_P2
2023/03/30 00:02:17;;;;;;;2.42;2.30;;;17.50;69.10;;;;;;5073414;28;20235;-66
2023/03/30 00:05:06;;;;;;;3.50;3.00;;;17.50;69.20;;;;;;5075855;28;20193;-68
2023/03/30 00:07:54;;;;;;;2.50;2.30;;;17.50;69.20;;;;;;5074905;28;20281;-67
2023/03/30 00:10:43;;;;;;;2.22;2.03;;;17.40;69.40;;;;;;5075878;28;20205;-66
2023/03/30 00:13:34;;;;;;;2.67;2.47;;;17.40;69.60;;;;;;5073865;28;20228;-69
2023/03/30 00:16:23;;;;;;;2.83;2.63;;;17.40;69.50;;;;;;5074774;28;20196;-68
2023/03/30 00:19:11;;;;;;;2.17;2.08;;;17.50;70.00;;;;;;5075725;28;20201;-66
2023/03/30 00:21:59;;;;;;;2.92;2.72;;;17.50;70.20;;;;;;5072916;28;20216;-65
2023/03/30 00:24:47;;;;;;;3.42;3.08;;;17.50;70.40;;;;;;5073702;28;20232;-66
2023/03/30 00:27:36;;;;;;;2.85;2.65;;;17.40;70.40;;;;;;5075805;28;20647;-66
2023/03/30 00:30:25;;;;;;;3.78;3.47;;;17.40;70.50;;;;;;5073761;28;20582;-65
2023/03/30 00:33:14;;;;;;;3.13;2.63;;;17.40;70.80;;;;;;5073988;28;20273;-66
2023/03/30 00:36:02;;;;;;;2.53;2.15;;;17.40;70.60;;;;;;5075261;28;20201;-66
2023/03/30 00:38:52;;;;;;;2.53;2.33;;;17.40;70.70;;;;;;5075875;28;20201;-68
2023/03/30 00:41:40;;;;;;;2.72;2.53;;;17.40;70.40;;;;;;5074317;28;20282;-65
2023/03/30 00:45:06;;;;;;;2.35;2.15;;;17.40;70.70;;;;;;5074861;28;20811;-65
2023/03/30 00:48:00;;;;;;;2.65;2.45;;;17.40;70.80;;;;;;5073346;28;20247;-66
2023/03/30 00:50:51;;;;;;;2.38;2.17;;;17.40;71.10;;;;;;5073486;28;20196;-66
2023/03/30 00:53:42;;;;;;;3.05;2.75;;;17.40;71.10;;;;;;5075316;28;20689;-66
2023/03/30 00:56:31;;;;;;;4.93;2.50;;;17.40;71.10;;;;;;5074651;28;20277;-65
2023/03/30 00:59:19;;;;;;;2.88;2.65;;;17.40;71.20;;;;;;5072290;28;20613;-67
2023/03/30 01:02:07;;;;;;;2.60;2.40;;;17.40;71.00;;;;;;5074952;28;20209;-70
2023/03/30 01:04:57;;;;;;;2.72;2.53;;;17.40;71.40;;;;;;5071830;28;20291;-67
2023/03/30 01:07:48;;;;;;;2.58;2.38;;;17.30;71.30;;;;;;5078218;28;20240;-67
2023/03/30 01:10:37;;;;;;;3.92;2.60;;;17.30;71.30;;;;;;5074604;28;20287;-65
2023/03/30 01:13:25;;;;;;;3.60;2.70;;;17.30;71.40;;;;;;5074724;28;20256;-66
2023/03/30 01:16:24;;;;;;;2.70;2.50;;;17.30;72.20;;;;;;5075031;28;20645;-66
2023/03/30 01:19:42;;;;;;;2.83;2.53;;;17.30;71.30;;;;;;5074902;28;20760;-67
2023/03/30 01:23:05;;;;;;;4.60;2.60;;;17.30;71.10;;;;;;5074938;28;20225;-69
2023/03/30 01:26:24;;;;;;;2.88;2.67;;;17.30;71.50;;;;;;5073892;28;20643;-66
2023/03/30 01:29:22;;;;;;;2.50;2.30;;;17.30;71.40;;;;;;5073708;28;20215;-67
2023/03/30 01:32:38;;;;;;;3.15;2.30;;;17.30;71.60;;;;;;5074330;28;20266;-66
2023/03/30 01:35:53;;;;;;;3.40;2.63;;;17.30;71.50;;;;;;5074791;28;20200;-66
2023/03/30 01:39:21;;;;;;;2.92;2.67;;;17.30;71.60;;;;;;5074792;28;20193;-64
2023/03/30 01:42:18;;;;;;;2.92;2.70;;;17.30;71.80;;;;;;5074613;28;20297;-67
2023/03/30 01:45:13;;;;;;;2.60;2.40;;;17.20;71.40;;;;;;5074837;28;20285;-67
2023/03/30 01:48:08;;;;;;;2.50;2.40;;;17.30;71.50;;;;;;5077916;28;20638;-65
2023/03/30 01:51:01;;;;;;;2.45;2.25;;;17.30;71.70;;;;;;5078781;28;20197;-66
2023/03/30 01:53:54;;;;;;;2.97;2.78;;;17.30;71.60;;;;;;5078590;28;20199;-65
2023/03/30 01:56:46;;;;;;;2.10;2.00;;;17.30;71.70;;;;;;5078275;28;20242;-65
2023/03/30 01:59:40;;;;;;;2.63;2.42;;;17.20;71.40;;;;;;5078736;28;20242;-66
2023/03/30 02:02:31;;;;;;;2.67;2.47;;;17.20;71.70;;;;;;5078238;28;20251;-66
2023/03/30 02:05:22;;;;;;;3.00;2.70;;;17.20;71.60;;;;;;5077902;28;20262;-66
2023/03/30 02:08:15;;;;;;;2.28;2.17;;;17.20;71.90;;;;;;5078123;28;20213;-65
2023/03/30 02:11:03;;;;;;;3.13;2.80;;;17.20;86.50;;;;;;5078720;28;20258;-67
2023/03/30 02:13:57;;;;;;;3.22;2.83;;;17.20;71.90;;;;;;5077852;28;20224;-65
2023/03/30 02:16:49;;;;;;;2.58;2.38;;;17.20;72.00;;;;;;5078038;28;20200;-65
2023/03/30 02:19:37;;;;;;;2.67;2.42;;;17.20;72.00;;;;;;5077982;28;20278;-65
2023/03/30 02:22:28;;;;;;;2.92;2.70;;;17.20;71.80;;;;;;5077825;28;20224;-66
2023/03/30 02:25:16;;;;;;;4.35;2.70;;;17.20;72.00;;;;;;5077758;28;20214;-67
2023/03/30 02:28:05;;;;;;;2.47;2.20;;;17.20;72.00;;;;;;5077919;28;20212;-66
2023/03/30 02:30:53;;;;;;;2.75;2.55;;;17.10;71.90;;;;;;5077861;28;20227;-66
2023/03/30 02:33:55;;;;;;;2.80;2.60;;;17.20;72.20;;;;;;5077667;28;20227;-67
2023/03/30 02:37:00;;;;;;;3.67;2.50;;;17.10;72.20;;;;;;5077548;28;20322;-66
2023/03/30 02:40:07;;;;;;;4.07;2.78;;;17.20;72.10;;;;;;5077364;28;20201;-65
2023/03/30 02:43:17;;;;;;;3.30;2.92;;;17.20;72.20;;;;;;5077149;28;20227;-66
2023/03/30 02:46:18;;;;;;;2.25;1.92;;;17.10;72.20;;;;;;5078150;28;20920;-66
2023/03/30 02:49:17;;;;;;;3.35;2.55;;;17.10;72.00;;;;;;5077523;28;20200;-66
2023/03/30 02:52:15;;;;;;;2.63;2.35;;;17.20;72.10;;;;;;5077042;28;20248;-67
2023/03/30 02:55:11;;;;;;;2.40;2.30;;;17.10;72.10;;;;;;5077489;28;20581;-66
2023/03/30 02:58:06;;;;;;;3.40;2.85;;;17.10;72.50;;;;;;5075427;28;20330;-67
2023/03/30 03:00:58;;;;;;;2.53;2.33;;;17.10;72.20;;;;;;5077579;28;20616;-67
2023/03/30 03:03:49;;;;;;;2.40;2.20;;;17.10;72.40;;;;;;5077512;28;20308;-67
2023/03/30 03:06:39;;;;;;;2.63;2.42;;;17.10;72.60;;;;;;5076603;28;20285;-65
2023/03/30 03:09:28;;;;;;;2.20;2.00;;;17.10;72.70;;;;;;5078171;28;20719;-65
2023/03/30 03:12:16;;;;;;;2.83;2.20;;;17.10;72.30;;;;;;5076671;28;20589;-66
2023/03/30 03:15:05;;;;;;;2.63;2.42;;;17.10;72.70;;;;;;5076390;28;20228;-66
2023/03/30 03:17:53;;;;;;;2.20;2.10;;;17.10;72.50;;;;;;5076483;28;20816;-66
2023/03/30 03:20:41;;;;;;;4.35;2.75;;;17.10;72.60;;;;;;5075997;28;20200;-66
2023/03/30 03:23:31;;;;;;;5.18;2.65;;;17.00;72.50;;;;;;5076626;28;20212;-67
2023/03/30 03:26:21;;;;;;;2.58;2.38;;;17.10;72.60;;;;;;5076649;28;20293;-65
2023/03/30 03:29:09;;;;;;;2.70;2.50;;;17.10;72.80;;;;;;5076835;28;20217;-66
2023/03/30 03:31:57;;;;;;;2.53;2.33;;;17.10;72.60;;;;;;5076631;28;20229;-66
2023/03/30 03:34:46;;;;;;;2.70;2.60;;;17.00;72.50;;;;;;5076525;28;20197;-66
2023/03/30 03:37:34;;;;;;;2.63;2.50;;;17.00;72.70;;;;;;5076453;28;20626;-66
2023/03/30 03:40:23;;;;;;;2.55;2.35;;;17.00;72.50;;;;;;5076249;28;20242;-65
2023/03/30 03:43:12;;;;;;;2.92;2.72;;;17.00;72.60;;;;;;5075911;28;20224;-65
2023/03/30 03:46:00;;;;;;;2.72;2.30;;;17.00;72.80;;;;;;5076936;28;20278;-66
2023/03/30 03:48:48;;;;;;;3.50;3.10;;;17.00;72.70;;;;;;5076808;28;20714;-66
2023/03/30 03:51:36;;;;;;;2.75;2.35;;;17.00;72.70;;;;;;5075870;28;20225;-67
2023/03/30 03:54:25;;;;;;;2.50;2.30;;;17.00;72.80;;;;;;5076699;28;20200;-64
2023/03/30 03:57:14;;;;;;;2.40;2.20;;;17.00;72.80;;;;;;5076188;28;20322;-66
2023/03/30 04:00:03;;;;;;;2.60;2.40;;;17.00;72.80;;;;;;5075893;28;20671;-65
2023/03/30 04:02:51;;;;;;;2.25;2.05;;;17.00;72.80;;;;;;5075325;28;20294;-66
2023/03/30 04:05:40;;;;;;;2.38;2.17;;;16.90;72.50;;;;;;5075582;28;20204;-67
2023/03/30 04:08:29;;;;;;;3.10;2.58;;;17.00;72.70;;;;;;5074971;28;20216;-65
2023/03/30 04:11:17;;;;;;;2.50;2.30;;;17.20;88.00;;;;;;5075887;28;20208;-65
2023/03/30 04:14:06;;;;;;;3.60;2.88;;;17.00;73.10;;;;;;5074511;28;20245;-65
2023/03/30 04:16:56;;;;;;;2.40;2.20;;;17.00;73.50;;;;;;5076223;28;20200;-67
2023/03/30 04:19:45;;;;;;;2.50;2.30;;;17.00;72.80;;;;;;5075212;28;20281;-65
2023/03/30 04:22:35;;;;;;;1.92;1.83;;;17.00;73.10;;;;;;5075627;28;20256;-66
2023/03/30 04:25:25;;;;;;;3.50;2.50;;;17.00;73.10;;;;;;5074645;28;20201;-65
2023/03/30 04:28:13;;;;;;;3.33;2.30;;;16.90;72.90;;;;;;5074259;28;20782;-65
2023/03/30 04:31:05;;;;;;;2.22;2.05;;;16.90;72.90;;;;;;5075366;28;20228;-64
2023/03/30 04:33:54;;;;;;;2.20;2.10;;;16.90;72.80;;;;;;5075835;28;20799;-65
2023/03/30 04:36:43;;;;;;;2.65;2.10;;;16.90;72.90;;;;;;5075107;28;20220;-67
2023/03/30 04:39:31;;;;;;;2.35;2.22;;;17.00;73.10;;;;;;5074205;28;20271;-66
2023/03/30 04:42:19;;;;;;;2.63;2.40;;;16.90;72.90;;;;;;5074879;28;20270;-66
2023/03/30 04:45:08;;;;;;;2.42;2.22;;;16.90;73.00;;;;;;5074524;28;20204;-66
2023/03/30 04:47:58;;;;;;;2.55;2.35;;;16.90;73.00;;;;;;5074573;28;20224;-65
2023/03/30 04:50:48;;;;;;;2.53;2.33;;;16.90;73.10;;;;;;5074728;28;20211;-66
2023/03/30 04:53:36;;;;;;;2.88;2.60;;;16.90;73.00;;;;;;5075073;28;20196;-67
2023/03/30 04:56:25;;;;;;;2.40;2.20;;;16.90;73.10;;;;;;5074914;28;20205;-66
2023/03/30 04:59:13;;;;;;;3.40;3.05;;;16.90;73.10;;;;;;5074683;28;20200;-66
2023/03/30 05:02:02;;;;;;;5.18;3.55;;;16.90;73.10;;;;;;5074332;28;20697;-66
2023/03/30 05:04:52;;;;;;;4.13;2.92;;;16.80;73.00;;;;;;5074927;28;20200;-66
2023/03/30 05:07:40;;;;;;;4.35;2.83;;;16.90;72.90;;;;;;5074552;28;20239;-67
2023/03/30 05:10:28;;;;;;;2.78;2.58;;;16.90;73.10;;;;;;5073365;28;20227;-67
2023/03/30 05:13:17;;;;;;;23.33;13.70;;;16.90;73.80;;;;;;5074002;28;20224;-66
2023/03/30 05:16:06;;;;;;;23.45;16.40;;;16.90;73.40;;;;;;5073179;28;20232;-66
2023/03/30 05:18:55;;;;;;;18.45;12.07;;;16.90;73.20;;;;;;5074351;28;20310;-67
2023/03/30 05:21:45;;;;;;;12.43;7.40;;;16.90;73.30;;;;;;5073224;28;20243;-67
2023/03/30 05:24:33;;;;;;;5.82;5.03;;;16.90;73.10;;;;;;5074713;28;20280;-66
2023/03/30 05:27:21;;;;;;;5.57;4.53;;;16.90;73.40;;;;;;5074970;28;20204;-66
2023/03/30 05:30:10;;;;;;;3.75;3.05;;;16.80;73.20;;;;;;5074762;28;20216;-67
2023/03/30 05:32:58;;;;;;;7.93;6.13;;;16.80;73.20;;;;;;5073387;28;20232;-67
2023/03/30 05:35:46;;;;;;;6.60;5.57;;;16.90;73.40;;;;;;5074694;28;20287;-65
2023/03/30 05:38:36;;;;;;;12.02;4.35;;;16.80;73.20;;;;;;5073365;28;20199;-66
2023/03/30 05:41:26;;;;;;;8.25;4.03;;;16.80;73.30;;;;;;5074363;28;20216;-67
2023/03/30 05:44:15;;;;;;;4.97;3.50;;;16.80;73.30;;;;;;5069267;28;20377;-64
2023/03/30 05:47:03;;;;;;;4.43;3.03;;;16.80;73.40;;;;;;5074028;28;20201;-67
2023/03/30 05:49:51;;;;;;;7.10;2.67;;;16.80;73.50;;;;;;5073646;28;20709;-67
2023/03/30 05:52:40;;;;;;;6.22;2.80;;;16.80;73.30;;;;;;5073712;28;20220;-66
2023/03/30 05:55:29;;;;;;;3.50;3.17;;;16.80;73.10;;;;;;5073572;28;20617;-66
2023/03/30 05:58:17;;;;;;;3.03;2.70;;;16.80;73.40;;;;;;5074927;28;20680;-67
2023/03/30 06:01:08;;;;;;;4.50;2.83;;;16.90;83.10;;;;;;5071789;28;20217;-67
2023/03/30 06:03:56;;;;;;;5.47;2.63;;;16.80;73.70;;;;;;5068772;28;20682;-66
2023/03/30 06:06:45;;;;;;;4.53;2.78;;;16.80;73.80;;;;;;5067647;28;20207;-65
2023/03/30 06:09:33;;;;;;;3.35;3.05;;;16.90;73.80;;;;;;5072993;28;20870;-65
2023/03/30 06:12:23;;;;;;;4.32;3.10;;;16.90;73.90;;;;;;5073923;28;20239;-65
2023/03/30 06:15:11;;;;;;;6.90;3.17;;;16.90;74.10;;;;;;5073294;28;20325;-65
2023/03/30 06:18:02;;;;;;;2.75;2.20;;;16.90;74.10;;;;;;5073878;28;20197;-66
2023/03/30 06:20:51;;;;;;;12.75;8.00;;;16.90;74.20;;;;;;5073976;28;20203;-65
2023/03/30 06:23:39;;;;;;;10.63;5.55;;;16.90;74.00;;;;;;5073048;28;20196;-64
2023/03/30 06:26:28;;;;;;;3.83;3.45;;;16.90;74.20;;;;;;5072582;28;20227;-66
2023/03/30 06:29:17;;;;;;;6.45;3.28;;;16.90;74.10;;;;;;5073256;28;20662;-67
2023/03/30 06:32:06;;;;;;;3.00;2.13;;;16.10;73.10;;;;;;5074838;28;20228;-66
2023/03/30 06:34:54;;;;;;;7.00;2.70;;;16.90;74.30;;;;;;5076626;28;20665;-67
2023/03/30 06:37:43;;;;;;;5.22;2.85;;;16.90;74.20;;;;;;5077404;28;20706;-66
2023/03/30 06:40:31;;;;;;;5.93;2.72;;;16.90;74.30;;;;;;5077707;28;20200;-65
2023/03/30 06:43:21;;;;;;;3.63;2.85;;;16.90;74.60;;;;;;5076882;28;20274;-67
2023/03/30 06:46:11;;;;;;;3.42;2.90;;;16.90;74.40;;;;;;5076015;28;20204;-66
2023/03/30 06:49:00;;;;;;;9.30;6.57;;;16.90;74.80;;;;;;5076835;28;20304;-66
2023/03/30 06:51:48;;;;;;;7.32;5.82;;;16.90;74.80;;;;;;5088640;28;20235;-66
2023/03/30 06:54:36;;;;;;;9.05;6.25;;;16.90;74.70;;;;;;5058714;28;20743;-66
2023/03/30 06:57:24;;;;;;;7.82;5.18;;;16.90;74.50;;;;;;5075411;28;20195;-65
2023/03/30 07:00:14;;;;;;;6.30;4.20;;;16.90;74.70;;;;;;5075967;28;20188;-66
2023/03/30 07:03:05;;;;;;;5.55;2.80;;;16.90;74.80;;;;;;5073343;28;20217;-66
2023/03/30 07:05:54;;;;;;;4.45;3.17;;;16.90;74.80;;;;;;5073066;28;20643;-67
2023/03/30 07:08:43;;;;;;;4.63;2.78;;;16.90;75.00;;;;;;5069952;28;20196;-65
2023/03/30 07:11:31;;;;;;;1.92;1.83;;;16.90;72.80;;;;;;5076224;28;20216;-67
2023/03/30 07:14:19;;;;;;;2.17;1.95;;;16.90;71.50;;;;;;5077443;28;20242;-67
2023/03/30 07:17:08;;;;;;;2.90;1.60;;;17.00;71.00;;;;;;5073163;28;20220;-65
2023/03/30 07:20:07;;;;;;;2.05;1.70;;;17.00;70.80;;;;;;5072671;28;20273;-68
2023/03/30 07:23:22;;;;;;;;;;;;;;;;;;;;;
2023/03/30 07:26:28;;;;;;;4.20;2.35;;;17.10;71.80;;;;;;5074310;28;20282;-66
2023/03/30 07:29:21;;;;;;;3.03;2.30;;;17.10;72.70;;;;;;5075571;28;20226;-67
2023/03/30 07:32:14;;;;;;;5.60;2.97;;;17.10;73.30;;;;;;5075184;28;20312;-67
2023/03/30 07:35:15;;;;;;;4.18;2.00;;;17.10;73.60;;;;;;5075668;28;20254;-66
2023/03/30 07:38:34;;;;;;;2.63;2.03;;;17.10;74.00;;;;;;5075804;28;20204;-65
2023/03/30 07:41:40;;;;;;;3.42;2.20;;;17.10;74.30;;;;;;5075072;28;20287;-66
2023/03/30 07:44:47;;;;;;;2.45;1.95;;;17.10;73.80;;;;;;5069546;28;20204;-67
2023/03/30 07:47:41;;;;;;;3.63;1.83;;;17.10;73.70;;;;;;5069907;28;20205;-65
2023/03/30 07:50:38;;;;;;;2.45;1.90;;;17.10;73.80;;;;;;5076227;28;20685;-66
2023/03/30 07:53:42;;;;;;;3.97;2.47;;;17.10;74.20;;;;;;5075390;28;20279;-67
2023/03/30 07:56:43;;;;;;;4.15;1.90;;;17.20;73.50;;;;;;5071645;28;20201;-66
2023/03/30 07:59:45;;;;;;;2.83;2.28;;;17.20;73.80;;;;;;5075539;28;20200;-67
2023/03/30 08:03:01;;;;;;;3.90;2.00;;;17.20;73.70;;;;;;5074830;28;20272;-66
2023/03/30 08:06:05;;;;;;;3.95;2.42;;;17.20;73.50;;;;;;5072177;28;20277;-66
2023/03/30 08:08:55;;;;;;;2.22;2.03;;;16.20;72.40;;;;;;5073191;28;20716;-67
2023/03/30 08:14:55;;;;;;;5.05;2.85;;;17.30;73.70;;;;;;5071626;28;20577;-66
2023/03/30 08:17:54;;;;;;;3.25;2.45;;;17.30;72.80;;;;;;5074093;28;20205;-66
2023/03/30 08:20:49;;;;;;;2.75;2.28;;;17.30;73.10;;;;;;5073256;28;20665;-66
2023/03/30 08:23:54;;;;;;;2.47;1.95;;;17.30;73.00;;;;;;5074717;28;20207;-65
2023/03/30 08:26:47;;;;;;;2.15;1.73;;;17.30;72.50;;;;;;5074197;28;20628;-68
2023/03/30 08:29:36;;;;;;;2.42;1.80;;;17.30;72.60;;;;;;5073619;28;20209;-66
2023/03/30 08:32:31;;;;;;;3.17;1.75;;;17.30;72.30;;;;;;5073316;28;20240;-67
2023/03/30 08:35:25;;;;;;;2.80;1.58;;;17.40;72.40;;;;;;5073883;28;20196;-68
2023/03/30 08:38:21;;;;;;;5.18;2.45;;;17.40;72.50;;;;;;5074436;28;20196;-66
2023/03/30 08:41:48;;;;;;;2.85;2.03;;;17.60;81.40;;;;;;5072603;28;20205;-67
2023/03/30 08:44:38;;;;;;;2.15;1.95;;;17.40;72.20;;;;;;5072637;28;20193;-67
2023/03/30 08:47:38;;;;;;;3.20;1.73;;;17.40;72.10;;;;;;5073717;28;20285;-66
2023/03/30 08:50:33;;;;;;;5.20;2.13;;;17.40;72.40;;;;;;5068230;28;20304;-67
2023/03/30 08:53:27;;;;;;;2.00;1.80;;;17.50;72.30;;;;;;5061896;28;20667;-67
2023/03/30 08:56:22;;;;;;;1.88;1.65;;;17.50;72.40;;;;;;5071789;28;20665;-67
2023/03/30 08:59:29;;;;;;;1.98;1.83;;;17.50;72.70;;;;;;5071073;28;20691;-67
2023/03/30 09:02:23;;;;;;;3.60;2.00;;;17.50;72.70;;;;;;5053487;28;20256;-65
2023/03/30 09:05:25;;;;;;;3.22;2.50;;;17.50;72.50;;;;;;5058918;28;20204;-68
2023/03/30 09:08:29;;;;;;;4.00;1.70;;;17.50;72.30;;;;;;5072579;28;20309;-67
2023/03/30 09:11:30;;;;;;;2.75;2.33;;;17.60;86.90;;;;;;5073189;28;20227;-65
2023/03/30 09:14:35;;;;;;;4.10;1.90;;;17.50;72.30;;;;;;5071051;28;20197;-66
2023/03/30 09:17:31;;;;;;;2.42;2.22;;;17.50;72.40;;;;;;5072048;28;20230;-66
2023/03/30 09:20:29;;;;;;;3.00;1.90;;;17.50;72.50;;;;;;5072844;28;20691;-66
2023/03/30 09:23:25;;;;;;;2.85;2.22;;;17.50;72.50;;;;;;5072438;28;20216;-67
2023/03/30 09:26:34;;;;;;;4.70;2.28;;;17.50;72.50;;;;;;5072210;28;20631;-67
2023/03/30 09:29:28;;;;;;;2.92;2.28;;;17.50;72.70;;;;;;5071759;28;20236;-66
2023/03/30 09:32:27;;;;;;;4.60;2.38;;;17.50;72.70;;;;;;5051128;28;20693;-67
2023/03/30 09:35:27;;;;;;;3.78;1.85;;;17.50;72.70;;;;;;5067085;28;20207;-66
2023/03/30 09:38:20;;;;;;;2.03;1.75;;;17.50;72.70;;;;;;5073640;28;20700;-67
2023/03/30 09:41:49;;;;;;;2.42;1.85;;;17.60;81.60;;;;;;5072804;28;20200;-66
2023/03/30 09:44:47;;;;;;;3.67;1.73;;;17.50;72.70;;;;;;5072549;28;20202;-66
2023/03/30 09:47:47;;;;;;;7.05;2.80;;;17.60;72.60;;;;;;5072340;28;20588;-69
2023/03/30 09:50:41;;;;;;;2.40;2.20;;;17.60;73.00;;;;;;5070852;28;20270;-69
2023/03/30 09:53:48;;;;;;;2.40;1.88;;;17.60;72.90;;;;;;5071940;28;20196;-67
2023/03/30 09:59:54;;;;;;;4.97;2.20;;;17.60;72.90;;;;;;5072001;28;20200;-68
2023/03/30 10:02:55;;;;;;;4.70;1.90;;;17.60;72.90;;;;;;5071517;28;20222;-67
2023/03/30 10:05:43;;;;;;;4.53;2.17;;;17.50;73.00;;;;;;5071639;28;20243;-67
2023/03/30 10:08:32;;;;;;;3.55;2.13;;;17.60;73.30;;;;;;5074652;28;20204;-68
2023/03/30 10:11:21;;;;;;;3.30;2.08;;;17.50;86.60;;;;;;5074967;28;20227;-67
2023/03/30 10:14:30;;;;;;;3.88;2.45;;;17.60;73.30;;;;;;5076107;28;20232;-69
2023/03/30 10:17:21;;;;;;;2.08;1.60;;;17.60;73.30;;;;;;5075247;28;20673;-67
2023/03/30 10:20:28;;;;;;;2.00;1.77;;;17.60;72.80;;;;;;5076676;28;20242;-69
2023/03/30 10:23:18;;;;;;;3.28;2.03;;;17.60;73.00;;;;;;5074832;28;20752;-67
2023/03/30 10:26:12;;;;;;;3.95;2.22;;;17.60;73.20;;;;;;5076127;28;20225;-68
2023/03/30 10:29:03;;;;;;;3.28;1.90;;;17.60;73.20;;;;;;5074799;28;20204;-67
2023/03/30 10:31:59;;;;;;;2.00;1.50;;;17.60;73.00;;;;;;5073971;28;20224;-66
2023/03/30 10:34:52;;;;;;;2.50;1.88;;;17.70;73.30;;;;;;5074828;28;20646;-67
2023/03/30 10:37:45;;;;;;;4.38;2.88;;;17.60;73.20;;;;;;5075915;28;20213;-66
2023/03/30 10:40:36;;;;;;;3.90;1.90;;;17.60;73.30;;;;;;5074836;28;20228;-67
2023/03/30 10:43:30;;;;;;;3.55;2.42;;;17.70;73.10;;;;;;5072260;28;20581;-66
2023/03/30 10:46:21;;;;;;;2.30;1.60;;;17.70;73.30;;;;;;5071667;28;20205;-66
2023/03/30 10:49:21;;;;;;;3.55;1.90;;;17.70;73.10;;;;;;5075531;28;20570;-70
2023/03/30 10:52:16;;;;;;;2.00;1.60;;;17.70;73.00;;;;;;5074784;28;20631;-67
2023/03/30 10:55:13;;;;;;;2.28;2.08;;;17.70;73.30;;;;;;5075054;28;20257;-67
2023/03/30 10:58:11;;;;;;;3.10;1.88;;;17.70;73.20;;;;;;5075025;28;20271;-67
2023/03/30 11:01:11;;;;;;;2.75;2.55;;;17.70;73.60;;;;;;5071293;28;20225;-68
2023/03/30 11:04:05;;;;;;;1.95;1.80;;;17.70;73.50;;;;;;5068805;28;20688;-69
2023/03/30 11:07:17;;;;;;;3.15;2.22;;;17.70;73.70;;;;;;5070057;28;20589;-68
2023/03/30 11:10:14;;;;;;;2.13;1.65;;;17.70;73.60;;;;;;5074217;28;20283;-68
2023/03/30 11:13:05;;;;;;;2.75;1.83;;;17.70;73.60;;;;;;5074302;28;20240;-67
2023/03/30 11:15:56;;;;;;;2.65;2.22;;;17.70;73.50;;;;;;5074876;28;20232;-68
2023/03/30 11:18:51;;;;;;;3.03;2.33;;;17.70;73.50;;;;;;5073945;28;20209;-67
2023/03/30 11:21:46;;;;;;;4.25;2.40;;;17.70;73.70;;;;;;5071035;28;20336;-70
2023/03/30 11:24:35;;;;;;;3.17;2.13;;;17.70;73.60;;;;;;5074257;28;20291;-67
2023/03/30 11:27:29;;;;;;;1.85;1.70;;;17.70;73.60;;;;;;5073962;28;20200;-69
2023/03/30 11:30:21;;;;;;;2.78;2.35;;;17.70;73.60;;;;;;5074215;28;20572;-70
2023/03/30 11:33:20;;;;;;;2.63;1.50;;;17.70;73.70;;;;;;5072705;28;20231;-66
2023/03/30 11:36:17;;;;;;;1.65;1.55;;;17.70;73.60;;;;;;5073121;28;20271;-69
2023/03/30 11:39:13;;;;;;;2.58;2.00;;;17.70;73.80;;;;;;5054055;28;20193;-68
2023/03/30 11:42:23;;;;;;;2.85;1.70;;;17.70;73.90;;;;;;5052086;28;20224;-69
2023/03/30 11:45:34;;;;;;;2.88;1.95;;;17.70;73.80;;;;;;5058433;28;20201;-68
2023/03/30 11:48:50;;;;;;;2.85;1.52;;;17.70;73.90;;;;;;5073596;28;20547;-71
2023/03/30 11:51:56;;;;;;;2.42;1.55;;;17.80;74.30;;;;;;5063797;28;20705;-67
2023/03/30 11:55:07;;;;;;;2.80;1.65;;;17.80;73.90;;;;;;5074043;28;20637;-68
2023/03/30 11:58:08;;;;;;;2.15;1.80;;;17.80;74.20;;;;;;5073427;28;20242;-67
2023/03/30 12:01:08;;;;;;;3.65;1.90;;;17.80;74.50;;;;;;5072576;28;20213;-69
2023/03/30 12:04:02;;;;;;;3.35;1.88;;;17.80;74.20;;;;;;5074645;28;20205;-67
2023/03/30 12:06:57;;;;;;;2.33;1.50;;;17.80;74.30;;;;;;5070511;28;20235;-67
2023/03/30 12:09:53;;;;;;;2.15;1.52;;;17.80;74.50;;;;;;5073765;28;20335;-67
2023/03/30 12:12:43;;;;;;;3.40;1.88;;;17.80;74.20;;;;;;5073241;28;20659;-66
2023/03/30 12:15:39;;;;;;;3.08;2.33;;;17.80;75.10;;;;;;5072845;28;20342;-69
2023/03/30 12:18:36;;;;;;;1.95;1.85;;;17.80;74.20;;;;;;5072970;28;20197;-67
2023/03/30 12:21:31;;;;;;;4.32;1.83;;;17.70;89.80;;;;;;5069498;28;20201;-70
2023/03/30 12:24:25;;;;;;;4.40;1.75;;;17.80;74.90;;;;;;5069206;28;20224;-67
2023/03/30 12:27:13;;;;;;;5.00;2.03;;;17.90;76.20;;;;;;5070529;28;20312;-68
2023/03/30 12:30:14;;;;;;;4.47;2.30;;;17.90;76.30;;;;;;5069119;28;20200;-70
2023/03/30 12:33:11;;;;;;;1.98;1.80;;;17.80;75.30;;;;;;5067459;28;20282;-67
2023/03/30 12:36:01;;;;;;;2.08;1.88;;;17.80;74.70;;;;;;5061758;28;20875;-69
2023/03/30 12:38:50;;;;;;;2.67;1.80;;;17.80;74.60;;;;;;5063080;28;20212;-69
2023/03/30 12:41:41;;;;;;;5.30;2.25;;;17.80;75.00;;;;;;5062386;28;20217;-70
2023/03/30 12:44:38;;;;;;;3.67;1.90;;;17.90;75.50;;;;;;5067870;28;20205;-70
2023/03/30 12:47:42;;;;;;;2.85;1.60;;;17.90;75.50;;;;;;5071455;28;20699;-69
2023/03/30 12:50:43;;;;;;;2.35;1.80;;;17.90;74.80;;;;;;5072051;28;20204;-71
2023/03/30 12:53:55;;;;;;;2.33;1.88;;;17.90;74.30;;;;;;5071471;28;20267;-70
2023/03/30 12:56:50;;;;;;;2.38;1.95;;;17.90;74.10;;;;;;5072229;28;20632;-70
2023/03/30 13:00:03;;;;;;;2.28;1.50;;;17.90;74.10;;;;;;5071135;28;20208;-69
2023/03/30 13:03:14;;;;;;;3.63;1.90;;;17.90;74.10;;;;;;5070496;28;20269;-68
2023/03/30 13:06:05;;;;;;;4.40;1.75;;;17.90;74.30;;;;;;5072011;28;20228;-69
2023/03/30 13:08:55;;;;;;;3.05;1.65;;;17.90;74.90;;;;;;5071558;28;20211;-68
2023/03/30 13:11:46;;;;;;;2.25;1.85;;;17.90;74.00;;;;;;5070203;28;20244;-70
2023/03/30 13:14:45;;;;;;;3.22;2.05;;;17.90;74.10;;;;;;5071032;28;20619;-67
2023/03/30 13:17:57;;;;;;;5.10;2.50;;;17.80;74.00;;;;;;5071133;28;20590;-68
2023/03/30 13:21:15;;;;;;;2.55;2.35;;;17.80;74.00;;;;;;5071940;28;20239;-68
2023/03/30 13:24:23;;;;;;;2.15;1.65;;;17.80;74.40;;;;;;5070719;28;20201;-70
2023/03/30 13:27:24;;;;;;;8.70;1.90;;;17.80;74.30;;;;;;5071328;28;20212;-70
2023/03/30 13:30:15;;;;;;;4.70;2.35;;;17.80;74.30;;;;;;5070847;28;20201;-66
2023/03/30 13:33:14;;;;;;;4.55;1.92;;;17.80;74.40;;;;;;5070454;28;20309;-69
2023/03/30 13:36:09;;;;;;;31.35;5.85;;;17.80;74.40;;;;;;5070995;28;20204;-67
2023/03/30 13:39:06;;;;;;;20.08;3.22;;;17.80;75.90;;;;;;5072091;28;20275;-66
2023/03/30 13:42:06;;;;;;;5.55;2.45;;;17.80;77.50;;;;;;5073458;28;20236;-67
2023/03/30 13:45:01;;;;;;;5.15;2.50;;;17.80;76.00;;;;;;5074723;28;20673;-66
2023/03/30 13:48:00;;;;;;;2.67;1.77;;;17.80;77.40;;;;;;5074730;28;20484;-65
2023/03/30 13:50:54;;;;;;;1.30;1.20;;;17.80;80.00;;;;;;5074939;28;20618;-67
2023/03/30 13:53:49;;;;;;;3.03;1.40;;;17.90;80.90;;;;;;5074599;28;20228;-69
2023/03/30 13:56:40;;;;;;;7.03;1.58;;;17.80;80.50;;;;;;5075139;28;20275;-66
2023/03/30 13:59:32;;;;;;;2.08;1.48;;;17.80;80.90;;;;;;5074463;28;20222;-66
2023/03/30 14:02:23;;;;;;;4.53;1.40;;;17.90;81.60;;;;;;5075080;28;20611;-68
2023/03/30 14:05:19;;;;;;;2.35;1.42;;;17.80;80.90;;;;;;5075656;28;20666;-67
2023/03/30 14:08:10;;;;;;;2.35;1.30;;;17.70;81.30;;;;;;5075653;28;20271;-65
2023/03/30 14:11:01;;;;;;;3.25;1.20;;;17.80;81.80;;;;;;5075740;28;20232;-67
2023/03/30 14:13:52;;;;;;;4.97;1.40;;;17.70;81.10;;;;;;5074657;28;20220;-69
2023/03/30 14:16:40;;;;;;;2.55;1.33;;;17.70;81.10;;;;;;5075972;28;20209;-67
2023/03/30 14:19:32;;;;;;;4.50;1.55;;;17.70;82.00;;;;;;5075453;28;20203;-65
2023/03/30 14:22:26;;;;;;;1.92;1.15;;;17.70;82.10;;;;;;5074485;28;20296;-69
2023/03/30 14:25:26;;;;;;;2.63;1.45;;;17.70;81.90;;;;;;5075601;28;20193;-66
2023/03/30 14:28:19;;;;;;;1.40;1.30;;;17.70;81.90;;;;;;5074517;28;20673;-65
2023/03/30 14:31:13;;;;;;;3.00;1.50;;;18.10;90.90;;;;;;5075504;28;20205;-66
2023/03/30 14:34:01;;;;;;;4.60;1.95;;;17.60;82.40;;;;;;5075925;28;20595;-66
2023/03/30 14:36:49;;;;;;;3.78;2.08;;;17.60;82.50;;;;;;5076329;28;20620;-66
2023/03/30 14:39:41;;;;;;;3.50;2.13;;;17.60;82.80;;;;;;5075740;28;20204;-66
2023/03/30 14:42:33;;;;;;;1.90;1.80;;;17.60;83.00;;;;;;5074652;28;20224;-69
2023/03/30 14:45:22;;;;;;;2.20;1.55;;;17.60;83.00;;;;;;5075172;28;20197;-67
2023/03/30 14:48:19;;;;;;;2.53;1.70;;;17.60;82.80;;;;;;5075644;28;20200;-67
2023/03/30 14:51:22;;;;;;;3.80;2.17;;;17.40;90.70;;;;;;5076104;28;20200;-66
2023/03/30 14:54:15;;;;;;;3.00;1.63;;;17.60;83.10;;;;;;5074931;28;20220;-67
2023/03/30 14:57:06;;;;;;;1.67;1.52;;;17.60;82.80;;;;;;5075869;28;20250;-67
2023/03/30 14:59:58;;;;;;;1.85;1.60;;;17.60;83.30;;;;;;5074700;28;20280;-65
2023/03/30 15:02:50;;;;;;;2.92;1.40;;;17.50;82.80;;;;;;5074385;28;20221;-67
2023/03/30 15:05:40;;;;;;;4.35;1.40;;;17.50;82.90;;;;;;5074841;28;20283;-65
2023/03/30 15:08:32;;;;;;;1.70;1.58;;;17.50;83.10;;;;;;5075797;28;20282;-65
2023/03/30 15:11:22;;;;;;;1.70;1.58;;;17.50;92.80;;;;;;5074568;28;20258;-66
2023/03/30 15:14:15;;;;;;;3.72;1.67;;;17.50;82.50;;;;;;5074593;28;20304;-65
2023/03/30 15:17:09;;;;;;;3.63;1.70;;;17.50;82.80;;;;;;5074241;28;20216;-66